Edwards Crossroads, North Carolina
Current Conditions -  °F | °C
As of 5:55 PM on Thursday 23 Oct 2014 (Local Time) from KGEV Reporting Station
Clear Clear  
Wind Chill: 12°   Ceiling: Unl
Heat Index: 12°   Visibility: 10mi
Dew Point:   Wind: 6mph
Humidity: 49%   Direction: 330°NNW
Pressure: 30.06"   Gusts: NA
Location:  36.5212°N, 81.1574°W
Report Text: KGEV 232155Z AUTO 33005KT 10SM CLR 12/01 A3006 RMK AO2 T01180013
Loading
Personal Weather Stations






























Interactive Weather Map
Tropical Storm Tracking
New forecast layout! Learn more

10-Day Weather Forecast

Advertisements
Track Severe Weather on mobile